sensor_id;sensor_type;location;lat;lon;timestamp;P1;durP1;ratioP1;P2;durP2;ratioP2
79526;SDS011;68974;47.754;-3.364;2023-04-25T00:00:58;8.95;;;3.15;;
79526;SDS011;68974;47.754;-3.364;2023-04-25T00:03:23;11.05;;;3.15;;
79526;SDS011;68974;47.754;-3.364;2023-04-25T00:05:50;6.00;;;2.80;;
79526;SDS011;68974;47.754;-3.364;2023-04-25T00:08:16;10.88;;;3.20;;
79526;SDS011;68974;47.754;-3.364;2023-04-25T00:10:42;8.55;;;2.45;;
79526;SDS011;68974;47.754;-3.364;2023-04-25T00:13:07;9.25;;;2.45;;
79526;SDS011;68974;47.754;-3.364;2023-04-25T00:15:33;11.63;;;3.25;;
79526;SDS011;68974;47.754;-3.364;2023-04-25T00:20:26;11.10;;;2.80;;
79526;SDS011;68974;47.754;-3.364;2023-04-25T00:22:51;12.43;;;2.92;;
79526;SDS011;68974;47.754;-3.364;2023-04-25T00:25:21;6.72;;;2.58;;
79526;SDS011;68974;47.754;-3.364;2023-04-25T00:27:46;15.00;;;3.22;;
79526;SDS011;68974;47.754;-3.364;2023-04-25T00:30:12;6.40;;;2.40;;
79526;SDS011;68974;47.754;-3.364;2023-04-25T00:32:38;11.25;;;3.15;;
79526;SDS011;68974;47.754;-3.364;2023-04-25T00:35:03;8.93;;;2.97;;
79526;SDS011;68974;47.754;-3.364;2023-04-25T00:37:29;11.70;;;2.80;;
79526;SDS011;68974;47.754;-3.364;2023-04-25T00:39:54;9.07;;;2.88;;
79526;SDS011;68974;47.754;-3.364;2023-04-25T00:42:21;7.40;;;2.85;;
79526;SDS011;68974;47.754;-3.364;2023-04-25T00:44:46;7.10;;;3.08;;
79526;SDS011;68974;47.754;-3.364;2023-04-25T00:47:12;7.80;;;2.63;;
79526;SDS011;68974;47.754;-3.364;2023-04-25T00:49:38;9.15;;;3.00;;
79526;SDS011;68974;47.754;-3.364;2023-04-25T00:52:04;11.25;;;3.15;;
79526;SDS011;68974;47.754;-3.364;2023-04-25T00:54:29;8.70;;;2.28;;
79526;SDS011;68974;47.754;-3.364;2023-04-25T00:56:55;7.88;;;2.17;;
79526;SDS011;68974;47.754;-3.364;2023-04-25T00:59:21;9.55;;;4.22;;
79526;SDS011;68974;47.754;-3.364;2023-04-25T01:01:47;13.05;;;2.83;;
79526;SDS011;68974;47.754;-3.364;2023-04-25T01:04:12;6.80;;;2.55;;
79526;SDS011;68974;47.754;-3.364;2023-04-25T01:06:38;9.40;;;3.03;;
79526;SDS011;68974;47.754;-3.364;2023-04-25T01:09:04;7.72;;;3.38;;
79526;SDS011;68974;47.754;-3.364;2023-04-25T01:11:30;7.43;;;2.42;;
79526;SDS011;68974;47.754;-3.364;2023-04-25T01:13:55;9.98;;;3.20;;
79526;SDS011;68974;47.754;-3.364;2023-04-25T01:16:21;9.00;;;3.50;;
79526;SDS011;68974;47.754;-3.364;2023-04-25T01:18:48;10.75;;;3.00;;
79526;SDS011;68974;47.754;-3.364;2023-04-25T01:21:15;11.40;;;3.13;;
79526;SDS011;68974;47.754;-3.364;2023-04-25T01:23:41;10.40;;;2.92;;
79526;SDS011;68974;47.754;-3.364;2023-04-25T01:26:10;10.38;;;2.90;;
79526;SDS011;68974;47.754;-3.364;2023-04-25T01:28:37;5.55;;;2.25;;
79526;SDS011;68974;47.754;-3.364;2023-04-25T01:31:06;8.38;;;2.75;;
79526;SDS011;68974;47.754;-3.364;2023-04-25T01:33:32;12.52;;;3.08;;
79526;SDS011;68974;47.754;-3.364;2023-04-25T01:35:57;10.27;;;2.63;;
79526;SDS011;68974;47.754;-3.364;2023-04-25T01:38:23;9.05;;;3.38;;
79526;SDS011;68974;47.754;-3.364;2023-04-25T01:40:48;7.65;;;2.88;;
79526;SDS011;68974;47.754;-3.364;2023-04-25T01:43:16;11.90;;;3.00;;
79526;SDS011;68974;47.754;-3.364;2023-04-25T01:45:42;7.75;;;2.85;;
79526;SDS011;68974;47.754;-3.364;2023-04-25T01:48:11;15.15;;;3.50;;
79526;SDS011;68974;47.754;-3.364;2023-04-25T01:50:38;11.55;;;3.83;;
79526;SDS011;68974;47.754;-3.364;2023-04-25T01:53:04;8.65;;;3.33;;
79526;SDS011;68974;47.754;-3.364;2023-04-25T01:55:30;9.10;;;3.03;;
79526;SDS011;68974;47.754;-3.364;2023-04-25T01:57:55;10.10;;;3.97;;
79526;SDS011;68974;47.754;-3.364;2023-04-25T02:00:21;9.60;;;3.05;;
79526;SDS011;68974;47.754;-3.364;2023-04-25T02:02:46;11.35;;;2.72;;
79526;SDS011;68974;47.754;-3.364;2023-04-25T02:05:13;11.85;;;3.92;;
79526;SDS011;68974;47.754;-3.364;2023-04-25T02:07:38;10.05;;;3.40;;
79526;SDS011;68974;47.754;-3.364;2023-04-25T02:10:04;11.25;;;3.13;;
79526;SDS011;68974;47.754;-3.364;2023-04-25T02:12:30;9.25;;;3.42;;
79526;SDS011;68974;47.754;-3.364;2023-04-25T02:14:56;10.20;;;3.63;;
79526;SDS011;68974;47.754;-3.364;2023-04-25T02:17:21;12.80;;;3.95;;
79526;SDS011;68974;47.754;-3.364;2023-04-25T02:19:47;9.48;;;3.40;;
79526;SDS011;68974;47.754;-3.364;2023-04-25T02:22:13;11.10;;;3.88;;
79526;SDS011;68974;47.754;-3.364;2023-04-25T02:24:38;12.02;;;3.88;;
79526;SDS011;68974;47.754;-3.364;2023-04-25T02:27:04;10.73;;;3.33;;
79526;SDS011;68974;47.754;-3.364;2023-04-25T02:29:29;11.60;;;3.83;;
79526;SDS011;68974;47.754;-3.364;2023-04-25T02:31:55;6.75;;;3.50;;
79526;SDS011;68974;47.754;-3.364;2023-04-25T02:34:20;9.77;;;4.13;;
79526;SDS011;68974;47.754;-3.364;2023-04-25T02:36:47;13.45;;;3.35;;
79526;SDS011;68974;47.754;-3.364;2023-04-25T02:39:14;9.48;;;3.47;;
79526;SDS011;68974;47.754;-3.364;2023-04-25T02:41:39;15.25;;;4.05;;
79526;SDS011;68974;47.754;-3.364;2023-04-25T02:44:05;9.00;;;3.63;;
79526;SDS011;68974;47.754;-3.364;2023-04-25T02:46:30;10.93;;;4.28;;
79526;SDS011;68974;47.754;-3.364;2023-04-25T02:48:56;10.53;;;4.67;;
79526;SDS011;68974;47.754;-3.364;2023-04-25T02:51:21;10.83;;;3.90;;
79526;SDS011;68974;47.754;-3.364;2023-04-25T02:53:46;14.88;;;3.83;;
79526;SDS011;68974;47.754;-3.364;2023-04-25T02:56:12;11.57;;;3.90;;
79526;SDS011;68974;47.754;-3.364;2023-04-25T02:58:37;10.88;;;3.55;;
79526;SDS011;68974;47.754;-3.364;2023-04-25T03:01:02;11.53;;;4.20;;
79526;SDS011;68974;47.754;-3.364;2023-04-25T03:03:28;7.93;;;3.85;;
79526;SDS011;68974;47.754;-3.364;2023-04-25T03:05:53;13.75;;;3.92;;
79526;SDS011;68974;47.754;-3.364;2023-04-25T03:08:19;8.50;;;3.53;;
79526;SDS011;68974;47.754;-3.364;2023-04-25T03:10:45;8.45;;;3.65;;
79526;SDS011;68974;47.754;-3.364;2023-04-25T03:13:10;16.13;;;4.90;;
79526;SDS011;68974;47.754;-3.364;2023-04-25T03:15:36;5.82;;;3.22;;
79526;SDS011;68974;47.754;-3.364;2023-04-25T03:18:02;10.63;;;3.92;;
79526;SDS011;68974;47.754;-3.364;2023-04-25T03:20:28;9.15;;;3.10;;
79526;SDS011;68974;47.754;-3.364;2023-04-25T03:22:54;6.40;;;3.30;;
79526;SDS011;68974;47.754;-3.364;2023-04-25T03:25:19;12.68;;;4.07;;
79526;SDS011;68974;47.754;-3.364;2023-04-25T03:27:45;7.38;;;3.08;;
79526;SDS011;68974;47.754;-3.364;2023-04-25T03:30:10;6.80;;;2.78;;
79526;SDS011;68974;47.754;-3.364;2023-04-25T03:32:36;9.88;;;4.43;;
79526;SDS011;68974;47.754;-3.364;2023-04-25T03:35:01;8.70;;;3.45;;
79526;SDS011;68974;47.754;-3.364;2023-04-25T03:37:27;8.20;;;3.78;;
79526;SDS011;68974;47.754;-3.364;2023-04-25T03:39:52;5.45;;;2.95;;
79526;SDS011;68974;47.754;-3.364;2023-04-25T03:42:18;12.35;;;3.67;;
79526;SDS011;68974;47.754;-3.364;2023-04-25T03:44:44;10.15;;;3.70;;
79526;SDS011;68974;47.754;-3.364;2023-04-25T03:47:10;11.15;;;3.58;;
79526;SDS011;68974;47.754;-3.364;2023-04-25T03:49:35;6.60;;;3.15;;
79526;SDS011;68974;47.754;-3.364;2023-04-25T03:52:02;9.70;;;3.92;;
79526;SDS011;68974;47.754;-3.364;2023-04-25T03:54:27;5.63;;;3.20;;
79526;SDS011;68974;47.754;-3.364;2023-04-25T03:56:53;11.85;;;3.72;;
79526;SDS011;68974;47.754;-3.364;2023-04-25T03:59:18;11.63;;;3.22;;
79526;SDS011;68974;47.754;-3.364;2023-04-25T04:01:44;7.40;;;3.55;;
79526;SDS011;68974;47.754;-3.364;2023-04-25T04:04:09;5.05;;;2.88;;
79526;SDS011;68974;47.754;-3.364;2023-04-25T04:06:35;7.57;;;3.20;;
79526;SDS011;68974;47.754;-3.364;2023-04-25T04:09:01;8.57;;;4.30;;
79526;SDS011;68974;47.754;-3.364;2023-04-25T04:11:27;8.60;;;3.42;;
79526;SDS011;68974;47.754;-3.364;2023-04-25T04:13:52;12.70;;;3.90;;
79526;SDS011;68974;47.754;-3.364;2023-04-25T04:16:17;7.87;;;3.50;;
79526;SDS011;68974;47.754;-3.364;2023-04-25T04:18:44;6.88;;;3.20;;
79526;SDS011;68974;47.754;-3.364;2023-04-25T04:21:10;11.70;;;3.50;;
79526;SDS011;68974;47.754;-3.364;2023-04-25T04:23:35;11.60;;;3.47;;
79526;SDS011;68974;47.754;-3.364;2023-04-25T04:26:01;10.82;;;3.58;;
79526;SDS011;68974;47.754;-3.364;2023-04-25T04:28:26;11.40;;;3.17;;
79526;SDS011;68974;47.754;-3.364;2023-04-25T04:30:53;7.03;;;3.25;;
79526;SDS011;68974;47.754;-3.364;2023-04-25T04:33:18;6.85;;;3.90;;
79526;SDS011;68974;47.754;-3.364;2023-04-25T04:35:44;9.18;;;3.28;;
79526;SDS011;68974;47.754;-3.364;2023-04-25T04:38:11;8.40;;;3.70;;
79526;SDS011;68974;47.754;-3.364;2023-04-25T04:40:37;8.98;;;3.42;;
79526;SDS011;68974;47.754;-3.364;2023-04-25T04:43:02;10.50;;;3.33;;
79526;SDS011;68974;47.754;-3.364;2023-04-25T04:45:28;8.95;;;2.95;;
79526;SDS011;68974;47.754;-3.364;2023-04-25T04:47:54;12.10;;;4.00;;
79526;SDS011;68974;47.754;-3.364;2023-04-25T04:50:20;6.35;;;3.17;;
79526;SDS011;68974;47.754;-3.364;2023-04-25T04:52:45;9.05;;;3.40;;
79526;SDS011;68974;47.754;-3.364;2023-04-25T04:55:11;11.43;;;3.40;;
79526;SDS011;68974;47.754;-3.364;2023-04-25T04:57:36;12.20;;;3.67;;
79526;SDS011;68974;47.754;-3.364;2023-04-25T05:00:03;9.85;;;3.00;;
79526;SDS011;68974;47.754;-3.364;2023-04-25T05:02:30;9.02;;;3.05;;
79526;SDS011;68974;47.754;-3.364;2023-04-25T05:04:55;9.75;;;3.03;;
79526;SDS011;68974;47.754;-3.364;2023-04-25T05:07:21;9.65;;;3.03;;
79526;SDS011;68974;47.754;-3.364;2023-04-25T05:09:46;7.63;;;3.20;;
79526;SDS011;68974;47.754;-3.364;2023-04-25T05:12:11;7.05;;;3.80;;
79526;SDS011;68974;47.754;-3.364;2023-04-25T05:14:37;8.00;;;3.92;;
79526;SDS011;68974;47.754;-3.364;2023-04-25T05:17:03;7.05;;;3.53;;
79526;SDS011;68974;47.754;-3.364;2023-04-25T05:19:33;8.65;;;3.42;;
79526;SDS011;68974;47.754;-3.364;2023-04-25T05:21:58;8.30;;;3.72;;
79526;SDS011;68974;47.754;-3.364;2023-04-25T05:24:24;8.50;;;3.42;;
79526;SDS011;68974;47.754;-3.364;2023-04-25T05:26:49;6.18;;;2.78;;
79526;SDS011;68974;47.754;-3.364;2023-04-25T05:29:15;10.38;;;4.18;;
79526;SDS011;68974;47.754;-3.364;2023-04-25T05:31:40;7.00;;;3.00;;
79526;SDS011;68974;47.754;-3.364;2023-04-25T05:34:05;8.95;;;3.28;;
79526;SDS011;68974;47.754;-3.364;2023-04-25T05:36:31;7.00;;;3.22;;
79526;SDS011;68974;47.754;-3.364;2023-04-25T05:38:57;7.13;;;3.25;;
79526;SDS011;68974;47.754;-3.364;2023-04-25T05:41:23;7.95;;;3.08;;
79526;SDS011;68974;47.754;-3.364;2023-04-25T05:43:48;4.63;;;2.80;;
79526;SDS011;68974;47.754;-3.364;2023-04-25T05:46:14;9.38;;;2.75;;
79526;SDS011;68974;47.754;-3.364;2023-04-25T05:48:42;10.77;;;4.22;;
79526;SDS011;68974;47.754;-3.364;2023-04-25T05:51:07;10.43;;;3.67;;
79526;SDS011;68974;47.754;-3.364;2023-04-25T05:53:33;10.55;;;3.75;;
79526;SDS011;68974;47.754;-3.364;2023-04-25T05:55:58;12.73;;;3.03;;
79526;SDS011;68974;47.754;-3.364;2023-04-25T05:58:23;6.55;;;2.40;;
79526;SDS011;68974;47.754;-3.364;2023-04-25T06:00:49;6.80;;;3.70;;
79526;SDS011;68974;47.754;-3.364;2023-04-25T06:03:15;5.68;;;2.70;;
79526;SDS011;68974;47.754;-3.364;2023-04-25T06:05:41;5.10;;;2.80;;
79526;SDS011;68974;47.754;-3.364;2023-04-25T06:08:07;7.10;;;3.08;;
79526;SDS011;68974;47.754;-3.364;2023-04-25T06:10:33;8.40;;;3.22;;
79526;SDS011;68974;47.754;-3.364;2023-04-25T06:12:58;5.22;;;2.65;;
79526;SDS011;68974;47.754;-3.364;2023-04-25T06:15:24;7.55;;;4.07;;
79526;SDS011;68974;47.754;-3.364;2023-04-25T06:17:49;6.55;;;3.13;;
79526;SDS011;68974;47.754;-3.364;2023-04-25T06:20:15;7.63;;;2.58;;
79526;SDS011;68974;47.754;-3.364;2023-04-25T06:22:40;6.70;;;3.20;;
79526;SDS011;68974;47.754;-3.364;2023-04-25T06:25:06;6.07;;;2.80;;
79526;SDS011;68974;47.754;-3.364;2023-04-25T06:27:32;8.15;;;3.80;;
79526;SDS011;68974;47.754;-3.364;2023-04-25T06:29:58;6.78;;;3.42;;
79526;SDS011;68974;47.754;-3.364;2023-04-25T06:32:24;7.65;;;3.13;;
79526;SDS011;68974;47.754;-3.364;2023-04-25T06:34:50;9.02;;;2.92;;
79526;SDS011;68974;47.754;-3.364;2023-04-25T06:37:15;8.23;;;3.65;;
79526;SDS011;68974;47.754;-3.364;2023-04-25T06:39:41;8.38;;;3.25;;
79526;SDS011;68974;47.754;-3.364;2023-04-25T06:42:06;6.15;;;3.38;;
79526;SDS011;68974;47.754;-3.364;2023-04-25T06:44:31;15.55;;;4.00;;
79526;SDS011;68974;47.754;-3.364;2023-04-25T06:46:57;5.82;;;3.17;;
79526;SDS011;68974;47.754;-3.364;2023-04-25T06:49:22;8.30;;;2.97;;
79526;SDS011;68974;47.754;-3.364;2023-04-25T06:51:47;8.20;;;3.50;;
79526;SDS011;68974;47.754;-3.364;2023-04-25T06:54:13;12.43;;;3.42;;
79526;SDS011;68974;47.754;-3.364;2023-04-25T06:56:38;9.05;;;3.47;;
79526;SDS011;68974;47.754;-3.364;2023-04-25T06:59:04;10.27;;;3.53;;
79526;SDS011;68974;47.754;-3.364;2023-04-25T07:01:29;6.03;;;3.10;;
79526;SDS011;68974;47.754;-3.364;2023-04-25T07:03:55;9.75;;;3.15;;
79526;SDS011;68974;47.754;-3.364;2023-04-25T07:06:20;8.15;;;3.85;;
79526;SDS011;68974;47.754;-3.364;2023-04-25T07:08:46;7.22;;;3.33;;
79526;SDS011;68974;47.754;-3.364;2023-04-25T07:11:11;9.70;;;2.83;;
79526;SDS011;68974;47.754;-3.364;2023-04-25T07:13:36;6.63;;;4.22;;
79526;SDS011;68974;47.754;-3.364;2023-04-25T07:16:02;4.20;;;3.25;;
79526;SDS011;68974;47.754;-3.364;2023-04-25T07:18:28;9.57;;;3.97;;
79526;SDS011;68974;47.754;-3.364;2023-04-25T07:20:53;7.72;;;3.45;;
79526;SDS011;68974;47.754;-3.364;2023-04-25T07:23:19;6.75;;;3.47;;
79526;SDS011;68974;47.754;-3.364;2023-04-25T07:25:44;8.52;;;3.60;;
79526;SDS011;68974;47.754;-3.364;2023-04-25T07:28:09;6.95;;;3.90;;
79526;SDS011;68974;47.754;-3.364;2023-04-25T07:30:35;10.00;;;3.80;;
79526;SDS011;68974;47.754;-3.364;2023-04-25T07:33:00;10.23;;;4.18;;
79526;SDS011;68974;47.754;-3.364;2023-04-25T07:35:26;9.73;;;4.13;;
79526;SDS011;68974;47.754;-3.364;2023-04-25T07:37:51;8.68;;;4.35;;
79526;SDS011;68974;47.754;-3.364;2023-04-25T07:40:16;10.13;;;4.18;;
79526;SDS011;68974;47.754;-3.364;2023-04-25T07:42:42;7.95;;;4.10;;
79526;SDS011;68974;47.754;-3.364;2023-04-25T07:45:07;6.93;;;4.30;;
79526;SDS011;68974;47.754;-3.364;2023-04-25T07:47:34;6.88;;;3.35;;
79526;SDS011;68974;47.754;-3.364;2023-04-25T07:49:59;7.90;;;3.05;;
79526;SDS011;68974;47.754;-3.364;2023-04-25T07:52:25;10.40;;;3.08;;
79526;SDS011;68974;47.754;-3.364;2023-04-25T07:54:50;9.90;;;3.50;;
79526;SDS011;68974;47.754;-3.364;2023-04-25T07:57:16;9.20;;;3.60;;
79526;SDS011;68974;47.754;-3.364;2023-04-25T07:59:43;7.22;;;3.42;;
79526;SDS011;68974;47.754;-3.364;2023-04-25T08:02:08;8.48;;;2.88;;
79526;SDS011;68974;47.754;-3.364;2023-04-25T08:04:34;8.10;;;3.05;;
79526;SDS011;68974;47.754;-3.364;2023-04-25T08:06:59;6.45;;;3.67;;
79526;SDS011;68974;47.754;-3.364;2023-04-25T08:09:25;7.57;;;3.53;;
79526;SDS011;68974;47.754;-3.364;2023-04-25T08:11:50;7.03;;;3.45;;
79526;SDS011;68974;47.754;-3.364;2023-04-25T08:14:16;8.70;;;3.15;;
79526;SDS011;68974;47.754;-3.364;2023-04-25T08:16:41;6.82;;;2.53;;
79526;SDS011;68974;47.754;-3.364;2023-04-25T08:19:07;7.30;;;3.25;;
79526;SDS011;68974;47.754;-3.364;2023-04-25T08:21:32;8.68;;;2.92;;
79526;SDS011;68974;47.754;-3.364;2023-04-25T08:23:58;4.35;;;2.95;;
79526;SDS011;68974;47.754;-3.364;2023-04-25T08:26:24;4.47;;;2.72;;
79526;SDS011;68974;47.754;-3.364;2023-04-25T08:28:50;7.53;;;2.92;;
79526;SDS011;68974;47.754;-3.364;2023-04-25T08:31:15;3.35;;;2.38;;
79526;SDS011;68974;47.754;-3.364;2023-04-25T08:33:41;4.13;;;2.20;;
79526;SDS011;68974;47.754;-3.364;2023-04-25T08:36:06;7.07;;;2.60;;
79526;SDS011;68974;47.754;-3.364;2023-04-25T08:38:32;5.32;;;2.83;;
79526;SDS011;68974;47.754;-3.364;2023-04-25T08:40:57;5.78;;;2.58;;
79526;SDS011;68974;47.754;-3.364;2023-04-25T08:43:26;9.02;;;2.53;;
79526;SDS011;68974;47.754;-3.364;2023-04-25T08:45:54;5.22;;;2.97;;
79526;SDS011;68974;47.754;-3.364;2023-04-25T08:48:25;3.97;;;2.88;;
79526;SDS011;68974;47.754;-3.364;2023-04-25T08:50:53;7.03;;;2.90;;
79526;SDS011;68974;47.754;-3.364;2023-04-25T08:53:21;5.05;;;2.10;;
79526;SDS011;68974;47.754;-3.364;2023-04-25T08:55:50;5.97;;;2.40;;
79526;SDS011;68974;47.754;-3.364;2023-04-25T08:58:18;3.40;;;1.95;;
79526;SDS011;68974;47.754;-3.364;2023-04-25T09:00:45;8.45;;;2.22;;
79526;SDS011;68974;47.754;-3.364;2023-04-25T09:03:11;4.18;;;2.00;;
79526;SDS011;68974;47.754;-3.364;2023-04-25T09:05:36;6.38;;;2.65;;
79526;SDS011;68974;47.754;-3.364;2023-04-25T09:08:02;9.32;;;2.70;;
79526;SDS011;68974;47.754;-3.364;2023-04-25T09:10:27;3.78;;;2.30;;
79526;SDS011;68974;47.754;-3.364;2023-04-25T09:13:06;4.93;;;3.03;;
79526;SDS011;68974;47.754;-3.364;2023-04-25T09:15:51;7.35;;;3.72;;
79526;SDS011;68974;47.754;-3.364;2023-04-25T09:18:24;5.05;;;2.28;;
79526;SDS011;68974;47.754;-3.364;2023-04-25T09:20:54;5.22;;;2.00;;
79526;SDS011;68974;47.754;-3.364;2023-04-25T09:23:21;7.03;;;2.58;;
79526;SDS011;68974;47.754;-3.364;2023-04-25T09:25:48;3.78;;;2.40;;
79526;SDS011;68974;47.754;-3.364;2023-04-25T09:28:22;6.15;;;2.70;;
79526;SDS011;68974;47.754;-3.364;2023-04-25T09:30:56;6.45;;;2.78;;
79526;SDS011;68974;47.754;-3.364;2023-04-25T09:33:32;5.00;;;2.60;;
79526;SDS011;68974;47.754;-3.364;2023-04-25T09:36:05;4.70;;;2.42;;
79526;SDS011;68974;47.754;-3.364;2023-04-25T09:38:39;6.35;;;2.38;;
79526;SDS011;68974;47.754;-3.364;2023-04-25T09:41:06;8.18;;;2.42;;
79526;SDS011;68974;47.754;-3.364;2023-04-25T09:43:33;7.75;;;2.30;;
79526;SDS011;68974;47.754;-3.364;2023-04-25T09:45:58;3.47;;;2.00;;
79526;SDS011;68974;47.754;-3.364;2023-04-25T09:48:26;4.18;;;1.90;;
79526;SDS011;68974;47.754;-3.364;2023-04-25T09:53:30;4.13;;;1.60;;
79526;SDS011;68974;47.754;-3.364;2023-04-25T09:55:57;5.30;;;2.40;;
79526;SDS011;68974;47.754;-3.364;2023-04-25T09:58:25;5.60;;;2.15;;
79526;SDS011;68974;47.754;-3.364;2023-04-25T10:00:54;4.43;;;2.22;;
79526;SDS011;68974;47.754;-3.364;2023-04-25T10:03:25;3.58;;;1.67;;
79526;SDS011;68974;47.754;-3.364;2023-04-25T10:05:51;4.38;;;2.53;;
79526;SDS011;68974;47.754;-3.364;2023-04-25T10:08:18;6.60;;;2.05;;
79526;SDS011;68974;47.754;-3.364;2023-04-25T10:13:11;4.15;;;2.30;;
79526;SDS011;68974;47.754;-3.364;2023-04-25T10:15:39;2.65;;;2.20;;
79526;SDS011;68974;47.754;-3.364;2023-04-25T10:18:06;4.38;;;2.28;;
79526;SDS011;68974;47.754;-3.364;2023-04-25T10:20:32;4.50;;;2.53;;
79526;SDS011;68974;47.754;-3.364;2023-04-25T10:22:58;9.02;;;2.72;;
79526;SDS011;68974;47.754;-3.364;2023-04-25T10:25:33;8.75;;;2.20;;
79526;SDS011;68974;47.754;-3.364;2023-04-25T10:27:59;3.45;;;2.50;;
79526;SDS011;68974;47.754;-3.364;2023-04-25T10:30:26;4.15;;;2.33;;
79526;SDS011;68974;47.754;-3.364;2023-04-25T10:32:52;5.00;;;2.20;;
79526;SDS011;68974;47.754;-3.364;2023-04-25T10:35:38;4.88;;;2.10;;
79526;SDS011;68974;47.754;-3.364;2023-04-25T10:38:04;5.95;;;2.42;;
79526;SDS011;68974;47.754;-3.364;2023-04-25T10:40:33;3.00;;;1.90;;
79526;SDS011;68974;47.754;-3.364;2023-04-25T10:43:43;3.28;;;2.60;;
79526;SDS011;68974;47.754;-3.364;2023-04-25T10:46:01;4.50;;;2.22;;
79526;SDS011;68974;47.754;-3.364;2023-04-25T10:48:28;7.00;;;2.40;;
79526;SDS011;68974;47.754;-3.364;2023-04-25T10:51:08;7.05;;;2.40;;
79526;SDS011;68974;47.754;-3.364;2023-04-25T10:53:37;7.88;;;2.35;;
79526;SDS011;68974;47.754;-3.364;2023-04-25T10:56:18;8.18;;;2.50;;
79526;SDS011;68974;47.754;-3.364;2023-04-25T10:58:45;5.65;;;2.70;;
79526;SDS011;68974;47.754;-3.364;2023-04-25T11:01:12;7.43;;;2.20;;
79526;SDS011;68974;47.754;-3.364;2023-04-25T11:03:44;4.68;;;2.10;;
79526;SDS011;68974;47.754;-3.364;2023-04-25T11:06:22;6.20;;;2.28;;
79526;SDS011;68974;47.754;-3.364;2023-04-25T11:08:53;8.02;;;3.75;;
79526;SDS011;68974;47.754;-3.364;2023-04-25T11:11:18;7.25;;;2.60;;
79526;SDS011;68974;47.754;-3.364;2023-04-25T11:13:47;6.72;;;2.20;;
79526;SDS011;68974;47.754;-3.364;2023-04-25T11:16:13;4.25;;;2.20;;
79526;SDS011;68974;47.754;-3.364;2023-04-25T11:18:42;7.72;;;2.53;;
79526;SDS011;68974;47.754;-3.364;2023-04-25T11:21:08;10.75;;;2.28;;
79526;SDS011;68974;47.754;-3.364;2023-04-25T11:23:35;4.57;;;2.28;;
79526;SDS011;68974;47.754;-3.364;2023-04-25T11:26:01;7.32;;;2.05;;
79526;SDS011;68974;47.754;-3.364;2023-04-25T11:28:28;10.60;;;2.40;;
79526;SDS011;68974;47.754;-3.364;2023-04-25T11:30:53;6.55;;;2.17;;
79526;SDS011;68974;47.754;-3.364;2023-04-25T11:33:22;4.65;;;2.03;;
79526;SDS011;68974;47.754;-3.364;2023-04-25T11:35:49;5.75;;;1.95;;
79526;SDS011;68974;47.754;-3.364;2023-04-25T11:38:14;4.65;;;2.50;;
79526;SDS011;68974;47.754;-3.364;2023-04-25T11:40:40;7.05;;;1.90;;
79526;SDS011;68974;47.754;-3.364;2023-04-25T11:43:05;4.45;;;1.95;;
79526;SDS011;68974;47.754;-3.364;2023-04-25T11:45:32;6.60;;;2.58;;
79526;SDS011;68974;47.754;-3.364;2023-04-25T11:47:57;5.13;;;1.52;;
79526;SDS011;68974;47.754;-3.364;2023-04-25T11:50:22;7.10;;;2.00;;
79526;SDS011;68974;47.754;-3.364;2023-04-25T11:52:48;3.78;;;1.70;;
79526;SDS011;68974;47.754;-3.364;2023-04-25T11:57:40;5.47;;;1.60;;
79526;SDS011;68974;47.754;-3.364;2023-04-25T12:02:41;4.55;;;1.88;;
79526;SDS011;68974;47.754;-3.364;2023-04-25T12:05:11;9.00;;;2.28;;
79526;SDS011;68974;47.754;-3.364;2023-04-25T12:07:38;6.30;;;1.85;;
79526;SDS011;68974;47.754;-3.364;2023-04-25T12:10:04;6.63;;;2.50;;
79526;SDS011;68974;47.754;-3.364;2023-04-25T12:12:34;7.32;;;2.17;;
79526;SDS011;68974;47.754;-3.364;2023-04-25T12:17:51;6.07;;;2.10;;
79526;SDS011;68974;47.754;-3.364;2023-04-25T12:20:19;6.43;;;2.42;;
79526;SDS011;68974;47.754;-3.364;2023-04-25T12:22:50;9.43;;;2.30;;
79526;SDS011;68974;47.754;-3.364;2023-04-25T12:28:13;5.95;;;2.05;;
79526;SDS011;68974;47.754;-3.364;2023-04-25T12:31:00;3.65;;;1.80;;
79526;SDS011;68974;47.754;-3.364;2023-04-25T12:33:30;5.00;;;2.00;;
79526;SDS011;68974;47.754;-3.364;2023-04-25T12:35:57;5.50;;;1.98;;
79526;SDS011;68974;47.754;-3.364;2023-04-25T12:38:27;8.07;;;1.85;;
79526;SDS011;68974;47.754;-3.364;2023-04-25T12:40:54;4.43;;;1.92;;
79526;SDS011;68974;47.754;-3.364;2023-04-25T12:43:20;9.98;;;2.28;;
79526;SDS011;68974;47.754;-3.364;2023-04-25T12:45:49;9.00;;;1.90;;
79526;SDS011;68974;47.754;-3.364;2023-04-25T12:48:19;6.68;;;2.17;;
79526;SDS011;68974;47.754;-3.364;2023-04-25T12:50:46;3.85;;;1.92;;
79526;SDS011;68974;47.754;-3.364;2023-04-25T12:53:16;4.20;;;2.13;;
79526;SDS011;68974;47.754;-3.364;2023-04-25T12:55:42;2.90;;;1.80;;
79526;SDS011;68974;47.754;-3.364;2023-04-25T12:58:08;6.88;;;1.90;;
79526;SDS011;68974;47.754;-3.364;2023-04-25T13:00:33;4.38;;;1.80;;
79526;SDS011;68974;47.754;-3.364;2023-04-25T13:02:59;7.03;;;2.17;;
79526;SDS011;68974;47.754;-3.364;2023-04-25T13:05:25;4.65;;;1.90;;
79526;SDS011;68974;47.754;-3.364;2023-04-25T13:07:51;5.45;;;2.35;;
79526;SDS011;68974;47.754;-3.364;2023-04-25T13:10:16;6.32;;;2.20;;
79526;SDS011;68974;47.754;-3.364;2023-04-25T13:12:43;4.65;;;1.95;;
79526;SDS011;68974;47.754;-3.364;2023-04-25T13:15:08;4.72;;;2.00;;
79526;SDS011;68974;47.754;-3.364;2023-04-25T13:17:36;3.28;;;2.05;;
79526;SDS011;68974;47.754;-3.364;2023-04-25T13:20:03;9.18;;;2.08;;
79526;SDS011;68974;47.754;-3.364;2023-04-25T13:22:31;9.40;;;2.10;;
79526;SDS011;68974;47.754;-3.364;2023-04-25T13:24:56;7.18;;;2.13;;
79526;SDS011;68974;47.754;-3.364;2023-04-25T13:27:22;9.15;;;2.13;;
79526;SDS011;68974;47.754;-3.364;2023-04-25T13:29:47;6.60;;;2.07;;
79526;SDS011;68974;47.754;-3.364;2023-04-25T13:32:12;9.38;;;2.20;;
79526;SDS011;68974;47.754;-3.364;2023-04-25T13:34:38;4.15;;;2.58;;
79526;SDS011;68974;47.754;-3.364;2023-04-25T13:37:03;8.57;;;2.30;;
79526;SDS011;68974;47.754;-3.364;2023-04-25T13:39:28;7.00;;;3.22;;
79526;SDS011;68974;47.754;-3.364;2023-04-25T13:41:54;22.65;;;3.80;;
79526;SDS011;68974;47.754;-3.364;2023-04-25T13:44:19;5.38;;;1.83;;
79526;SDS011;68974;47.754;-3.364;2023-04-25T13:46:45;6.47;;;2.42;;
79526;SDS011;68974;47.754;-3.364;2023-04-25T13:49:11;7.20;;;2.88;;
79526;SDS011;68974;47.754;-3.364;2023-04-25T13:51:36;5.15;;;2.08;;
79526;SDS011;68974;47.754;-3.364;2023-04-25T13:54:02;8.18;;;3.05;;
79526;SDS011;68974;47.754;-3.364;2023-04-25T13:56:27;4.57;;;2.88;;
79526;SDS011;68974;47.754;-3.364;2023-04-25T13:58:53;6.00;;;2.28;;
79526;SDS011;68974;47.754;-3.364;2023-04-25T14:01:18;6.90;;;3.10;;
79526;SDS011;68974;47.754;-3.364;2023-04-25T14:03:45;6.78;;;2.50;;
79526;SDS011;68974;47.754;-3.364;2023-04-25T14:06:11;5.10;;;2.50;;
79526;SDS011;68974;47.754;-3.364;2023-04-25T14:08:37;6.25;;;2.40;;
79526;SDS011;68974;47.754;-3.364;2023-04-25T14:11:03;6.85;;;2.60;;
79526;SDS011;68974;47.754;-3.364;2023-04-25T14:13:29;6.85;;;3.03;;
79526;SDS011;68974;47.754;-3.364;2023-04-25T14:15:55;6.10;;;2.35;;
79526;SDS011;68974;47.754;-3.364;2023-04-25T14:18:20;11.40;;;3.17;;
79526;SDS011;68974;47.754;-3.364;2023-04-25T14:20:46;10.52;;;3.78;;
79526;SDS011;68974;47.754;-3.364;2023-04-25T14:23:11;7.15;;;2.30;;
79526;SDS011;68974;47.754;-3.364;2023-04-25T14:25:37;5.47;;;3.13;;
79526;SDS011;68974;47.754;-3.364;2023-04-25T14:28:02;10.75;;;2.88;;
79526;SDS011;68974;47.754;-3.364;2023-04-25T14:30:28;4.13;;;2.75;;
79526;SDS011;68974;47.754;-3.364;2023-04-25T14:32:54;10.55;;;2.80;;
79526;SDS011;68974;47.754;-3.364;2023-04-25T14:35:20;7.07;;;3.20;;
79526;SDS011;68974;47.754;-3.364;2023-04-25T14:37:45;8.02;;;2.60;;
79526;SDS011;68974;47.754;-3.364;2023-04-25T14:40:11;7.85;;;2.80;;
79526;SDS011;68974;47.754;-3.364;2023-04-25T14:42:38;10.80;;;2.67;;
79526;SDS011;68974;47.754;-3.364;2023-04-25T14:45:05;7.82;;;2.80;;